Time;durP1;ratioP1;P1;durP2;ratioP2;P2;SDS_P1;SDS_P2;PMS_P1;PMS_P2;Temp;Humidity;BMP_temperature;BMP_pressure;BME280_temperature;BME280_humidity;BME280_pressure;Samples;Min_cycle;Max_cycle;Signal;HPM_P1;HPM_P2
2020/12/25 00:01:32;;;;;;;51.20;30.33;;;7.00;99.90;;;;;;4156368;28;20370;-55
2020/12/25 00:03:33;;;;;;;52.57;29.20;;;7.00;99.90;;;;;;4155998;28;20068;-52
2020/12/25 00:05:34;;;;;;;44.37;26.17;;;7.00;99.90;;;;;;4139370;28;20479;-51
2020/12/25 00:07:35;;;;;;;38.67;22.97;;;7.10;99.90;;;;;;4141215;28;20046;-53
2020/12/25 00:09:36;;;;;;;42.37;24.67;;;7.10;99.90;;;;;;4139757;28;20030;-52
2020/12/25 00:11:38;;;;;;;28.37;18.57;;;7.20;99.90;;;;;;4140726;28;20445;-56
2020/12/25 00:13:39;;;;;;;37.30;20.67;;;7.20;99.90;;;;;;4139853;28;20793;-54
2020/12/25 00:15:40;;;;;;;33.80;20.47;;;7.20;99.90;;;;;;4140492;28;20088;-51
2020/12/25 00:17:41;;;;;;;35.57;21.70;;;7.20;99.90;;;;;;4152426;28;20033;-55
2020/12/25 00:19:42;;;;;;;40.47;23.87;;;7.30;99.90;;;;;;4156041;28;20117;-50
2020/12/25 00:21:43;;;;;;;35.50;20.57;;;7.30;99.90;;;;;;4156793;28;20025;-51
2020/12/25 00:23:45;;;;;;;30.37;18.00;;;7.30;99.90;;;;;;4157447;28;20029;-53
2020/12/25 00:25:46;;;;;;;28.23;17.97;;;7.30;99.90;;;;;;4160087;28;20053;-55
2020/12/25 00:27:47;;;;;;;26.80;16.77;;;7.30;99.90;;;;;;4159074;28;20045;-54
2020/12/25 00:29:48;;;;;;;21.00;13.10;;;7.30;99.90;;;;;;4160804;28;20033;-52
2020/12/25 00:31:49;;;;;;;24.47;15.03;;;7.40;99.90;;;;;;4158680;28;20091;-50
2020/12/25 00:33:51;;;;;;;29.10;16.43;;;7.40;99.90;;;;;;4160426;28;20103;-50
2020/12/25 00:35:52;;;;;;;22.43;14.07;;;7.40;99.90;;;;;;4158927;28;20543;-54
2020/12/25 00:37:54;;;;;;;21.50;13.97;;;7.50;99.90;;;;;;4159894;28;20093;-52
2020/12/25 00:39:55;;;;;;;21.00;14.23;;;7.50;99.90;;;;;;4158374;28;20045;-58
2020/12/25 00:41:56;;;;;;;21.43;13.60;;;7.50;99.90;;;;;;4155022;28;20095;-50
2020/12/25 00:43:57;;;;;;;18.50;12.13;;;7.50;99.90;;;;;;4141618;28;20508;-53
2020/12/25 00:45:58;;;;;;;19.47;12.30;;;7.50;99.90;;;;;;4143744;28;20088;-54
2020/12/25 00:47:59;;;;;;;40.67;23.40;;;7.60;99.90;;;;;;4142115;28;20124;-52
2020/12/25 00:50:00;;;;;;;45.23;26.03;;;7.60;99.90;;;;;;4142447;28;20104;-55
2020/12/25 00:52:01;;;;;;;52.53;31.10;;;7.40;99.90;;;;;;4142479;28;20457;-54
2020/12/25 00:54:03;;;;;;;39.70;24.80;;;7.40;99.90;;;;;;4143402;28;20461;-51
2020/12/25 00:56:04;;;;;;;39.27;23.67;;;7.30;99.90;;;;;;4142737;28;20084;-53
2020/12/25 00:58:05;;;;;;;44.37;26.33;;;7.20;99.90;;;;;;4142265;28;20053;-54
2020/12/25 01:00:06;;;;;;;43.40;25.97;;;7.20;99.90;;;;;;4143028;28;20037;-54
2020/12/25 01:02:07;;;;;;;47.37;27.37;;;7.20;99.90;;;;;;4149657;28;20045;-53
2020/12/25 01:04:08;;;;;;;36.90;21.73;;;7.20;99.90;;;;;;4159595;28;20559;-55
2020/12/25 01:06:14;;;;;;;41.50;24.03;;;7.20;99.90;;;;;;4158521;28;20038;-51
2020/12/25 01:08:16;;;;;;;45.13;26.27;;;7.20;99.90;;;;;;4142490;28;20100;-55
2020/12/25 01:10:17;;;;;;;39.20;24.10;;;7.20;99.90;;;;;;4143328;28;20100;-50
2020/12/25 01:12:18;;;;;;;37.77;21.87;;;7.20;99.90;;;;;;4143717;28;20034;-50
2020/12/25 01:14:19;;;;;;;25.93;17.17;;;7.20;99.90;;;;;;4141364;28;20030;-51
2020/12/25 01:16:20;;;;;;;31.20;18.77;;;7.20;99.90;;;;;;4141243;28;20050;-55
2020/12/25 01:18:21;;;;;;;28.57;16.60;;;7.20;99.90;;;;;;4142037;28;20537;-54
2020/12/25 01:20:23;;;;;;;22.07;13.03;;;7.30;99.90;;;;;;4142171;28;20038;-51
2020/12/25 01:22:24;;;;;;;16.30;9.60;;;7.30;99.90;;;;;;4142062;28;20485;-51
2020/12/25 01:24:27;;;;;;;23.53;13.10;;;7.30;99.90;;;;;;4142304;28;20482;-55
2020/12/25 01:26:28;;;;;;;24.33;14.30;;;7.30;99.90;;;;;;4143605;28;20092;-51
2020/12/25 01:28:29;;;;;;;15.13;9.60;;;7.40;99.90;;;;;;4141651;28;20868;-53
2020/12/25 01:30:30;;;;;;;27.73;15.77;;;7.40;99.90;;;;;;4145305;28;20045;-53
2020/12/25 01:32:34;;;;;;;35.87;16.53;;;7.30;99.90;;;;;;4157763;28;20037;-52
2020/12/25 01:34:35;;;;;;;38.37;22.97;;;7.30;99.90;;;;;;4159237;28;20123;-56
2020/12/25 01:36:37;;;;;;;34.20;20.07;;;7.30;99.90;;;;;;4158231;28;20084;-53
2020/12/25 01:38:38;;;;;;;29.50;17.70;;;7.30;99.90;;;;;;4158733;28;20127;-49
2020/12/25 01:40:39;;;;;;;31.33;19.77;;;7.30;99.90;;;;;;4158036;28;20034;-54
2020/12/25 01:42:40;;;;;;;36.83;22.63;;;7.30;99.90;;;;;;4158459;28;20087;-52
2020/12/25 01:44:41;;;;;;;36.37;21.70;;;7.30;99.90;;;;;;4146961;28;20440;-54
2020/12/25 01:46:42;;;;;;;28.37;17.17;;;7.20;99.90;;;;;;4143675;28;20050;-51
2020/12/25 01:48:44;;;;;;;30.77;19.03;;;7.20;99.90;;;;;;4123717;28;20058;-51
2020/12/25 01:50:45;;;;;;;35.57;20.03;;;7.20;99.90;;;;;;4141740;28;20038;-51
2020/12/25 01:52:47;;;;;;;34.57;18.07;;;7.20;99.90;;;;;;4141631;28;20112;-53
2020/12/25 01:54:48;;;;;;;34.50;19.60;;;7.20;99.90;;;;;;4155143;28;20041;-53
2020/12/25 01:56:49;;;;;;;28.83;16.80;;;7.20;99.90;;;;;;4158296;28;20050;-52
2020/12/25 01:58:51;;;;;;;30.00;17.83;;;7.10;99.90;;;;;;4157728;28;20142;-57
2020/12/25 02:00:52;;;;;;;28.27;17.33;;;7.10;99.90;;;;;;4140153;28;20092;-56
2020/12/25 02:02:53;;;;;;;28.87;17.20;;;7.10;99.90;;;;;;4140639;28;20124;-59
2020/12/25 02:04:54;;;;;;;26.27;16.80;;;7.10;99.90;;;;;;4141755;28;20482;-57
2020/12/25 02:06:55;;;;;;;29.53;17.53;;;7.10;99.90;;;;;;4140295;28;20049;-52
2020/12/25 02:08:56;;;;;;;26.60;16.73;;;7.10;99.90;;;;;;4142630;28;20486;-50
2020/12/25 02:10:58;;;;;;;29.57;17.50;;;7.10;99.90;;;;;;4140182;28;20113;-53
2020/12/25 02:13:00;;;;;;;25.77;16.77;;;7.20;99.90;;;;;;4141948;28;20042;-52
2020/12/25 02:15:01;;;;;;;25.67;16.10;;;7.20;99.90;;;;;;4140879;28;20038;-54
2020/12/25 02:17:02;;;;;;;29.77;15.77;;;7.10;99.90;;;;;;4141686;28;20038;-49
2020/12/25 02:19:03;;;;;;;28.63;16.93;;;7.10;99.90;;;;;;4140763;28;20445;-51
2020/12/25 02:21:05;;;;;;;30.30;19.10;;;7.10;99.90;;;;;;4141476;28;20040;-54
2020/12/25 02:23:06;;;;;;;32.80;19.80;;;7.10;99.90;;;;;;4141174;28;20036;-51
2020/12/25 02:25:07;;;;;;;26.67;16.80;;;7.10;99.90;;;;;;4141396;28;20414;-49
2020/12/25 02:27:09;;;;;;;26.80;17.20;;;7.20;99.90;;;;;;4141479;28;20465;-49
2020/12/25 02:29:10;;;;;;;21.37;13.20;;;7.10;99.90;;;;;;4140902;28;20098;-51
2020/12/25 02:31:11;;;;;;;23.27;13.80;;;7.10;99.90;;;;;;4142381;28;20030;-48
2020/12/25 02:33:12;;;;;;;25.07;15.10;;;7.20;99.90;;;;;;4140891;28;20085;-51
2020/12/25 02:35:14;;;;;;;20.77;13.80;;;7.10;99.90;;;;;;4157095;28;20638;-53
2020/12/25 02:37:15;;;;;;;16.97;10.77;;;7.10;99.90;;;;;;4156981;28;20547;-53
2020/12/25 02:39:16;;;;;;;18.97;11.23;;;7.10;99.90;;;;;;4157553;28;20041;-52
2020/12/25 02:41:17;;;;;;;24.60;14.83;;;7.10;99.90;;;;;;4156880;28;20042;-57
2020/12/25 02:43:18;;;;;;;17.53;11.63;;;7.10;99.90;;;;;;4158096;28;20041;-51
2020/12/25 02:45:20;;;;;;;19.60;13.37;;;7.10;99.90;;;;;;4156249;28;20053;-53
2020/12/25 02:47:21;;;;;;;19.77;11.47;;;7.10;99.90;;;;;;4157940;28;20037;-57
2020/12/25 02:49:22;;;;;;;19.50;12.23;;;7.20;99.90;;;;;;4157022;28;20041;-52
2020/12/25 02:51:23;;;;;;;17.73;10.23;;;7.20;99.90;;;;;;4152423;28;20175;-57
2020/12/25 02:53:24;;;;;;;16.37;9.40;;;7.10;99.90;;;;;;4141161;28;20087;-52
2020/12/25 02:55:25;;;;;;;17.63;9.97;;;7.10;99.90;;;;;;4140719;28;20092;-53
2020/12/25 02:57:26;;;;;;;15.30;10.27;;;7.10;99.90;;;;;;4140547;28;20437;-54
2020/12/25 02:59:27;;;;;;;18.53;10.90;;;7.10;99.90;;;;;;4140695;28;20034;-49
2020/12/25 03:01:28;;;;;;;21.57;12.40;;;7.10;99.90;;;;;;4140875;28;20042;-55
2020/12/25 03:03:29;;;;;;;20.50;12.40;;;7.10;99.90;;;;;;4138057;28;20033;-52
2020/12/25 03:05:31;;;;;;;21.90;13.57;;;7.20;99.90;;;;;;4141163;28;20050;-49
2020/12/25 03:07:32;;;;;;;20.37;12.13;;;7.20;99.90;;;;;;4139563;28;20053;-54
2020/12/25 03:09:33;;;;;;;18.57;11.83;;;7.10;99.90;;;;;;4140703;28;20045;-51
2020/12/25 03:11:34;;;;;;;21.20;13.20;;;7.10;99.90;;;;;;4139241;28;20445;-55
2020/12/25 03:13:36;;;;;;;23.70;13.47;;;7.20;99.90;;;;;;4141732;28;20030;-48
2020/12/25 03:15:37;;;;;;;23.33;13.73;;;7.10;99.90;;;;;;4140641;28;20034;-52
2020/12/25 03:17:38;;;;;;;24.13;14.53;;;7.10;99.90;;;;;;4141327;28;20689;-53
2020/12/25 03:19:39;;;;;;;22.07;13.97;;;7.10;99.90;;;;;;4140057;28;20037;-54
2020/12/25 03:21:40;;;;;;;23.63;14.20;;;7.10;99.90;;;;;;4141282;28;20470;-56
2020/12/25 03:23:42;;;;;;;27.43;14.77;;;7.10;99.90;;;;;;4143317;28;20520;-55
2020/12/25 03:25:43;;;;;;;32.03;17.80;;;7.10;99.90;;;;;;4156502;28;20815;-55
2020/12/25 03:27:44;;;;;;;29.50;17.43;;;7.10;99.90;;;;;;4156787;28;20115;-54
2020/12/25 03:29:45;;;;;;;31.60;18.23;;;7.10;99.90;;;;;;4156827;28;20088;-50
2020/12/25 03:31:47;;;;;;;36.37;19.70;;;7.10;99.90;;;;;;4156859;28;20888;-52
2020/12/25 03:33:48;;;;;;;28.17;16.83;;;7.10;99.90;;;;;;4156565;28;20045;-52
2020/12/25 03:35:49;;;;;;;32.33;18.20;;;7.10;99.90;;;;;;4157866;28;20481;-52
2020/12/25 03:37:50;;;;;;;34.77;18.93;;;7.10;99.90;;;;;;4156468;28;20539;-54
2020/12/25 03:39:52;;;;;;;30.53;19.33;;;7.10;99.90;;;;;;4156550;28;20091;-48
2020/12/25 03:41:53;;;;;;;25.63;16.30;;;7.10;99.90;;;;;;4147039;28;20088;-51
2020/12/25 03:43:54;;;;;;;25.57;16.13;;;7.10;99.90;;;;;;4141183;28;20087;-55
2020/12/25 03:45:55;;;;;;;23.40;14.93;;;7.10;99.90;;;;;;4138930;28;20084;-50
2020/12/25 03:48:00;;;;;;;22.23;13.63;;;7.10;99.90;;;;;;4140548;28;20050;-49
2020/12/25 03:50:01;;;;;;;21.60;13.43;;;7.10;99.90;;;;;;4139854;28;20046;-50
2020/12/25 03:52:02;;;;;;;19.10;11.73;;;7.10;99.90;;;;;;4140678;28;20108;-53
2020/12/25 03:54:04;;;;;;;17.50;11.23;;;7.10;99.90;;;;;;4139792;28;20105;-48
2020/12/25 03:56:05;;;;;;;16.30;11.00;;;7.10;99.90;;;;;;4140532;28;20030;-51
2020/12/25 03:58:06;;;;;;;12.93;8.83;;;7.00;99.90;;;;;;4140497;28;20034;-51
2020/12/25 04:00:07;;;;;;;15.60;8.87;;;7.00;99.90;;;;;;4143085;28;20042;-58
2020/12/25 04:02:08;;;;;;;12.23;8.73;;;7.00;99.90;;;;;;4143652;28;20046;-53
2020/12/25 04:04:09;;;;;;;12.80;8.87;;;7.00;99.90;;;;;;4142986;28;20056;-53
2020/12/25 04:06:11;;;;;;;11.40;7.50;;;7.00;99.90;;;;;;4144047;28;20545;-56
2020/12/25 04:08:12;;;;;;;9.27;7.07;;;7.00;99.90;;;;;;4142699;28;20050;-54
2020/12/25 04:10:13;;;;;;;14.57;7.50;;;7.00;99.90;;;;;;4144025;28;20546;-53
2020/12/25 04:12:14;;;;;;;13.67;7.27;;;7.00;99.90;;;;;;4142836;28;20046;-53
2020/12/25 04:14:17;;;;;;;12.77;8.43;;;7.00;99.90;;;;;;4134806;28;20045;-50
2020/12/25 04:16:18;;;;;;;18.83;11.07;;;7.00;99.90;;;;;;4159080;28;20025;-53
2020/12/25 04:18:19;;;;;;;24.67;13.20;;;7.00;99.90;;;;;;4160713;28;20096;-54
2020/12/25 04:20:20;;;;;;;17.90;10.67;;;6.90;99.90;;;;;;4159107;28;20029;-54
2020/12/25 04:22:22;;;;;;;20.67;11.97;;;6.90;99.90;;;;;;4160351;28;20140;-57
2020/12/25 04:24:23;;;;;;;23.87;12.97;;;6.90;99.90;;;;;;4159411;28;20029;-53
2020/12/25 04:26:24;;;;;;;23.00;13.53;;;6.90;99.90;;;;;;4159329;28;20041;-55
2020/12/25 04:28:25;;;;;;;18.93;11.37;;;6.90;99.90;;;;;;4159568;28;20042;-53
2020/12/25 04:30:26;;;;;;;17.80;10.07;;;6.90;99.90;;;;;;4159378;28;20087;-48
2020/12/25 04:32:27;;;;;;;14.13;9.00;;;6.90;99.90;;;;;;4159682;28;20033;-58
2020/12/25 04:34:28;;;;;;;13.90;9.00;;;6.90;99.90;;;;;;4158735;28;20084;-50
2020/12/25 04:36:30;;;;;;;14.03;8.60;;;6.90;99.90;;;;;;4160297;28;20087;-53
2020/12/25 04:38:31;;;;;;;11.67;7.33;;;6.90;99.90;;;;;;4158899;28;20561;-52
2020/12/25 04:40:33;;;;;;;11.23;7.23;;;6.90;99.90;;;;;;4159830;28;20041;-54
2020/12/25 04:42:41;;;;;;;10.87;7.10;;;6.90;99.90;;;;;;4158561;28;20763;-53
2020/12/25 04:44:43;;;;;;;12.50;5.73;;;6.90;99.90;;;;;;4160082;28;20045;-50
2020/12/25 04:46:44;;;;;;;7.30;5.17;;;6.90;99.90;;;;;;4158075;28;20143;-52
2020/12/25 04:48:46;;;;;;;20.73;11.00;;;6.90;99.90;;;;;;4159582;28;20533;-58
2020/12/25 04:50:47;;;;;;;24.63;14.00;;;6.90;99.90;;;;;;4155077;28;20038;-48
2020/12/25 04:52:49;;;;;;;20.83;12.60;;;6.80;99.90;;;;;;4143580;28;20379;-50
2020/12/25 04:54:50;;;;;;;19.63;11.97;;;6.80;99.90;;;;;;4143212;28;20037;-54
2020/12/25 04:56:51;;;;;;;20.70;11.70;;;6.80;99.90;;;;;;4142806;28;20041;-54
2020/12/25 04:58:53;;;;;;;17.33;10.33;;;6.80;99.90;;;;;;4141959;28;20132;-57
2020/12/25 05:01:05;;;;;;;18.00;8.63;;;6.80;99.90;;;;;;4142517;28;20314;-53
2020/12/25 05:03:07;;;;;;;15.67;8.57;;;6.80;99.90;;;;;;4141861;28;20444;-53
2020/12/25 05:05:09;;;;;;;13.27;8.47;;;6.80;99.90;;;;;;4158142;28;20253;-53
2020/12/25 05:07:14;;;;;;;14.33;8.23;;;6.80;99.90;;;;;;4155028;28;20034;-54
2020/12/25 05:09:16;;;;;;;11.07;7.03;;;6.80;99.90;;;;;;4141087;28;20033;-52
2020/12/25 05:11:20;;;;;;;16.53;10.27;;;6.80;99.90;;;;;;4142223;28;20049;-50
2020/12/25 05:13:21;;;;;;;17.27;10.77;;;6.80;99.90;;;;;;4142153;28;20076;-48
2020/12/25 05:15:22;;;;;;;22.53;11.90;;;6.80;99.90;;;;;;4143454;28;20579;-53
2020/12/25 05:17:24;;;;;;;19.77;12.47;;;6.80;99.90;;;;;;4142004;28;20044;-53
2020/12/25 05:19:30;;;;;;;20.07;11.40;;;6.80;99.90;;;;;;4142373;28;20096;-50
2020/12/25 05:21:38;;;;;;;18.07;12.13;;;6.70;99.90;;;;;;4130637;28;20037;-53
2020/12/25 05:23:41;;;;;;;16.37;9.90;;;6.70;99.90;;;;;;4159060;28;20072;-51
2020/12/25 05:25:42;;;;;;;15.23;10.20;;;6.80;99.90;;;;;;4158747;28;20030;-59
2020/12/25 05:27:44;;;;;;;13.60;8.73;;;6.80;99.90;;;;;;4159367;28;20092;-53
2020/12/25 05:29:48;;;;;;;17.03;10.90;;;6.80;99.90;;;;;;4158324;28;20543;-55
2020/12/25 05:31:51;;;;;;;15.30;8.97;;;6.80;99.90;;;;;;4158946;28;20053;-52
2020/12/25 05:33:57;;;;;;;17.97;10.87;;;6.80;99.90;;;;;;4157595;28;20045;-54
2020/12/25 05:35:58;;;;;;;28.00;11.00;;;6.80;99.90;;;;;;4159373;28;20489;-54
2020/12/25 05:38:09;;;;;;;15.20;10.17;;;6.80;99.90;;;;;;4158039;28;20038;-51
2020/12/25 05:40:10;;;;;;;18.77;12.63;;;6.70;99.90;;;;;;4159443;28;20557;-55
2020/12/25 05:42:11;;;;;;;20.27;12.20;;;6.70;99.90;;;;;;4142808;28;20746;-53
2020/12/25 05:44:12;;;;;;;22.47;13.10;;;6.70;99.90;;;;;;4142484;28;20072;-58
2020/12/25 05:46:14;;;;;;;25.90;15.53;;;6.70;99.90;;;;;;4142414;28;20026;-54
2020/12/25 05:48:15;;;;;;;17.43;11.77;;;6.60;99.90;;;;;;4141968;28;20042;-55
2020/12/25 05:50:20;;;;;;;20.50;12.03;;;6.60;99.90;;;;;;4124916;28;20034;-52
2020/12/25 05:52:21;;;;;;;19.67;10.57;;;6.60;99.90;;;;;;4151102;28;20038;-52
2020/12/25 05:54:27;;;;;;;25.67;15.10;;;6.50;99.90;;;;;;4159190;28;20042;-50
2020/12/25 05:56:28;;;;;;;20.13;12.07;;;6.50;99.90;;;;;;4156901;28;20452;-55
2020/12/25 05:58:31;;;;;;;17.57;11.47;;;6.50;99.90;;;;;;4146315;28;20088;-51
2020/12/25 06:00:33;;;;;;;22.27;12.97;;;6.50;99.90;;;;;;4141246;28;20026;-54
2020/12/25 06:02:35;;;;;;;29.33;17.37;;;6.50;99.90;;;;;;4124681;28;20050;-53
2020/12/25 06:04:36;;;;;;;20.53;12.17;;;6.50;99.90;;;;;;4141487;28;20022;-52
2020/12/25 06:06:39;;;;;;;27.57;15.40;;;6.50;99.90;;;;;;4142641;28;20033;-52
2020/12/25 06:09:10;;;;;;;27.50;15.40;;;6.40;99.90;;;;;;4140811;28;20113;-52
2020/12/25 06:11:15;;;;;;;19.43;12.47;;;6.50;99.90;;;;;;4140237;28;20075;-51
2020/12/25 06:13:16;;;;;;;15.47;10.53;;;6.40;99.90;;;;;;4141420;28;20080;-49
2020/12/25 06:15:24;;;;;;;19.87;12.40;;;6.40;99.90;;;;;;4141596;28;20038;-50
2020/12/25 06:17:27;;;;;;;19.47;11.80;;;6.50;99.90;;;;;;4140814;28;20088;-55
2020/12/25 06:19:56;;;;;;;18.77;11.27;;;6.50;99.90;;;;;;4142462;28;20029;-52
2020/12/25 06:22:01;;;;;;;19.13;12.03;;;6.50;99.90;;;;;;4156557;28;20041;-54
2020/12/25 06:24:03;;;;;;;20.30;12.60;;;6.50;99.90;;;;;;4159086;28;20068;-54
2020/12/25 06:26:08;;;;;;;18.87;11.00;;;6.50;99.90;;;;;;4156606;28;20037;-55
2020/12/25 06:28:09;;;;;;;23.07;12.70;;;6.50;99.90;;;;;;4152656;28;20087;-51
2020/12/25 06:30:10;;;;;;;16.37;10.60;;;6.50;99.90;;;;;;4140738;28;20030;-50
2020/12/25 06:32:12;;;;;;;20.63;12.27;;;6.50;99.90;;;;;;4141885;28;20088;-48
2020/12/25 06:34:13;;;;;;;17.50;10.63;;;6.50;99.90;;;;;;4140454;28;20042;-53
2020/12/25 06:36:28;;;;;;;17.40;10.77;;;6.50;99.90;;;;;;4141559;28;20553;-53
2020/12/25 06:38:41;;;;;;;14.77;9.97;;;6.50;99.90;;;;;;4140578;28;20088;-49
2020/12/25 06:40:43;;;;;;;13.80;9.13;;;6.60;99.90;;;;;;4141784;28;20095;-57
2020/12/25 06:42:47;;;;;;;11.57;8.67;;;6.60;99.90;;;;;;4134779;28;20042;-53
2020/12/25 06:44:49;;;;;;;13.93;8.70;;;6.60;99.90;;;;;;4141012;28;20021;-55
2020/12/25 06:46:51;;;;;;;14.17;9.83;;;6.70;99.90;;;;;;4140765;28;20018;-50
2020/12/25 06:48:52;;;;;;;14.77;9.23;;;6.60;99.90;;;;;;4141056;28;20046;-57
2020/12/25 06:50:59;;;;;;;15.90;10.13;;;6.60;99.90;;;;;;4141871;28;20026;-51
2020/12/25 06:53:01;;;;;;;13.17;8.97;;;6.60;99.90;;;;;;4141299;28;20080;-54
2020/12/25 06:55:06;;;;;;;10.50;7.73;;;6.60;99.90;;;;;;4140851;28;20647;-51
2020/12/25 06:57:09;;;;;;;14.70;9.77;;;6.60;99.90;;;;;;4141101;28;20049;-51
2020/12/25 06:59:15;;;;;;;12.20;8.27;;;6.60;99.90;;;;;;4152672;28;20033;-45
2020/12/25 07:01:33;;;;;;;13.43;8.47;;;6.60;99.90;;;;;;4150497;28;20083;-52
2020/12/25 07:03:35;;;;;;;12.57;8.27;;;6.60;99.90;;;;;;4156550;28;20536;-51
2020/12/25 07:05:48;;;;;;;12.30;9.03;;;6.60;99.90;;;;;;4152078;28;20114;-52
2020/12/25 07:07:50;;;;;;;13.13;8.30;;;6.60;99.90;;;;;;4122745;28;20519;-52
2020/12/25 07:09:51;;;;;;;13.20;8.67;;;6.60;99.90;;;;;;4152339;28;20100;-53
2020/12/25 07:11:52;;;;;;;12.30;8.00;;;6.60;99.90;;;;;;4151749;28;20049;-53
2020/12/25 07:13:53;;;;;;;14.37;8.47;;;6.70;99.90;;;;;;4156192;28;20099;-50
2020/12/25 07:15:54;;;;;;;14.40;9.57;;;6.70;99.90;;;;;;4151851;28;20107;-55
2020/12/25 07:17:56;;;;;;;14.70;9.53;;;6.70;99.90;;;;;;4139802;28;20029;-53
2020/12/25 07:19:57;;;;;;;13.97;9.63;;;6.70;99.90;;;;;;4154633;28;20111;-51
2020/12/25 07:21:59;;;;;;;13.60;8.47;;;6.70;99.90;;;;;;4156411;28;20033;-53
2020/12/25 07:24:00;;;;;;;14.47;8.87;;;6.80;99.90;;;;;;4146029;28;20025;-53
2020/12/25 07:26:02;;;;;;;16.23;9.83;;;6.70;99.90;;;;;;4138363;28;20093;-53
2020/12/25 07:28:03;;;;;;;12.67;8.67;;;6.80;99.90;;;;;;4154186;28;20041;-51
2020/12/25 07:30:05;;;;;;;16.10;10.57;;;6.80;99.90;;;;;;4155573;28;20509;-58
2020/12/25 07:32:08;;;;;;;14.37;9.73;;;6.90;99.90;;;;;;4145261;28;20049;-51
2020/12/25 07:34:09;;;;;;;15.83;10.03;;;6.80;99.90;;;;;;4138695;28;20045;-49
2020/12/25 07:36:11;;;;;;;14.60;9.97;;;6.90;99.90;;;;;;4148468;28;20029;-54
2020/12/25 07:38:14;;;;;;;25.50;18.63;;;6.80;99.90;;;;;;4155928;28;20100;-57
2020/12/25 07:40:15;;;;;;;25.83;15.50;;;6.90;99.90;;;;;;4136958;28;20042;-53
2020/12/25 07:42:18;;;;;;;18.70;12.90;;;6.80;99.90;;;;;;4157104;28;20412;-55
2020/12/25 07:44:20;;;;;;;21.10;12.30;;;6.90;99.90;;;;;;4154241;28;20033;-54
2020/12/25 07:46:23;;;;;;;18.10;11.30;;;6.90;99.90;;;;;;4156922;28;20030;-51
2020/12/25 07:48:24;;;;;;;17.67;10.93;;;6.90;99.90;;;;;;4151027;28;20041;-57
2020/12/25 07:50:25;;;;;;;15.73;10.80;;;6.90;99.90;;;;;;4141388;28;20701;-53
2020/12/25 07:52:26;;;;;;;22.43;15.17;;;6.90;99.90;;;;;;4139507;28;20447;-48
2020/12/25 07:54:28;;;;;;;34.20;22.53;;;6.90;99.90;;;;;;4143333;28;20041;-50
2020/12/25 07:56:31;;;;;;;37.63;24.43;;;6.90;99.90;;;;;;4139673;28;20026;-46
2020/12/25 07:58:34;;;;;;;34.77;24.07;;;6.90;99.90;;;;;;4140685;28;20042;-52
2020/12/25 08:00:35;;;;;;;37.37;24.93;;;6.90;99.90;;;;;;4140005;28;20034;-47
2020/12/25 08:02:36;;;;;;;45.77;27.17;;;6.90;99.90;;;;;;4143080;28;20037;-49
2020/12/25 08:04:40;;;;;;;31.10;20.37;;;6.90;99.90;;;;;;4154516;28;20038;-48
2020/12/25 08:06:42;;;;;;;28.87;19.73;;;6.90;99.90;;;;;;4140312;28;20061;-56
2020/12/25 08:08:49;;;;;;;31.37;20.43;;;6.90;99.90;;;;;;4139944;28;20091;-54
2020/12/25 08:10:50;;;;;;;28.67;19.30;;;7.00;99.90;;;;;;4149651;28;20549;-46
2020/12/25 08:12:55;;;;;;;30.13;19.83;;;7.00;99.90;;;;;;4156524;28;20096;-48
2020/12/25 08:14:59;;;;;;;35.43;26.33;;;7.00;99.90;;;;;;4145942;28;20582;-52
2020/12/25 08:17:00;;;;;;;30.63;20.10;;;7.00;99.90;;;;;;4140108;28;20765;-50
2020/12/25 08:19:02;;;;;;;27.70;19.97;;;7.00;99.90;;;;;;4138415;28;20441;-50
2020/12/25 08:21:04;;;;;;;30.77;21.40;;;7.00;99.90;;;;;;4140584;28;20034;-48
2020/12/25 08:23:05;;;;;;;28.07;17.67;;;7.10;99.90;;;;;;4139371;28;20080;-48
2020/12/25 08:25:06;;;;;;;14.83;10.23;;;7.00;99.90;;;;;;4141316;28;20041;-44
2020/12/25 08:27:08;;;;;;;12.63;8.80;;;7.10;99.90;;;;;;4139388;28;20037;-46
2020/12/25 08:29:09;;;;;;;13.53;8.43;;;7.00;99.90;;;;;;4150670;28;20053;-46
2020/12/25 08:31:17;;;;;;;13.77;9.30;;;7.10;99.90;;;;;;4145515;28;20046;-45
2020/12/25 08:33:25;;;;;;;14.90;8.37;;;7.10;99.90;;;;;;4151550;28;20092;-54
2020/12/25 08:35:30;;;;;;;12.77;8.47;;;7.00;99.90;;;;;;4147588;28;20100;-46
2020/12/25 08:37:31;;;;;;;13.03;9.17;;;7.00;99.90;;;;;;4140335;28;20042;-46
2020/12/25 08:39:32;;;;;;;26.47;18.57;;;6.90;99.90;;;;;;4138864;28;20038;-50
2020/12/25 08:41:34;;;;;;;18.27;12.20;;;6.90;99.90;;;;;;4139854;28;20076;-51
2020/12/25 08:43:35;;;;;;;15.30;10.67;;;6.90;99.90;;;;;;4130040;28;20046;-53
2020/12/25 08:45:38;;;;;;;15.73;9.70;;;6.90;99.90;;;;;;4142144;28;20034;-57
2020/12/25 08:47:40;;;;;;;14.80;10.03;;;6.90;99.90;;;;;;4142411;28;20564;-53
2020/12/25 08:49:41;;;;;;;13.87;10.00;;;6.80;99.90;;;;;;4142988;28;20486;-58
2020/12/25 08:51:42;;;;;;;13.37;8.77;;;6.80;99.90;;;;;;4142812;28;20053;-47
2020/12/25 08:53:50;;;;;;;14.33;8.80;;;6.80;99.90;;;;;;4142311;28;20072;-48
2020/12/25 08:55:55;;;;;;;14.07;8.63;;;6.80;99.90;;;;;;4144501;28;20080;-51
2020/12/25 08:57:56;;;;;;;14.63;9.57;;;6.80;99.90;;;;;;4143243;28;20034;-44
2020/12/25 09:00:07;;;;;;;13.70;9.57;;;6.80;99.90;;;;;;4143206;28;20037;-53
2020/12/25 09:02:08;;;;;;;16.83;10.33;;;6.80;99.90;;;;;;4155637;28;20091;-46
2020/12/25 09:04:13;;;;;;;13.97;9.57;;;6.80;99.90;;;;;;4153266;28;20025;-56
2020/12/25 09:06:15;;;;;;;11.13;7.60;;;6.80;99.90;;;;;;4145145;28;20025;-58
2020/12/25 09:08:16;;;;;;;11.43;8.00;;;6.80;99.90;;;;;;4154554;28;20095;-54
2020/12/25 09:10:17;;;;;;;12.73;9.07;;;6.80;99.90;;;;;;4157634;28;20068;-51
2020/12/25 09:12:18;;;;;;;14.30;9.20;;;6.80;99.90;;;;;;4156091;28;20560;-57
2020/12/25 09:14:20;;;;;;;15.13;10.43;;;6.80;99.90;;;;;;4144132;28;20532;-53
2020/12/25 09:16:22;;;;;;;10.50;7.27;;;6.80;99.90;;;;;;4143423;28;20080;-45
2020/12/25 09:18:23;;;;;;;12.47;8.77;;;6.80;99.90;;;;;;4143202;28;20030;-52
2020/12/25 09:20:24;;;;;;;15.20;9.30;;;6.80;99.90;;;;;;4145970;28;20100;-54
2020/12/25 09:22:25;;;;;;;13.10;7.97;;;6.80;99.90;;;;;;4124030;28;20502;-50
2020/12/25 09:24:26;;;;;;;13.07;7.97;;;6.90;99.90;;;;;;4142081;28;20096;-47
2020/12/25 09:26:28;;;;;;;10.80;7.83;;;6.90;99.90;;;;;;4141998;28;20202;-47
2020/12/25 09:28:29;;;;;;;11.77;8.07;;;7.00;99.90;;;;;;4141651;28;20080;-47
2020/12/25 09:30:30;;;;;;;9.90;7.10;;;7.00;99.90;;;;;;4142761;28;20099;-52
2020/12/25 09:32:31;;;;;;;12.53;7.37;;;7.10;99.90;;;;;;4123893;28;20057;-45
2020/12/25 09:34:32;;;;;;;9.20;6.37;;;7.10;99.90;;;;;;4142795;28;20451;-58
2020/12/25 09:36:33;;;;;;;11.97;7.47;;;7.10;99.90;;;;;;4140863;28;20045;-56
2020/12/25 09:38:37;;;;;;;10.57;7.40;;;7.20;99.90;;;;;;4142152;28;20100;-57
2020/12/25 09:40:38;;;;;;;7.20;5.17;;;7.20;99.90;;;;;;4133520;28;20053;-59
2020/12/25 09:42:39;;;;;;;7.33;4.83;;;7.20;99.90;;;;;;4142318;28;20631;-52
2020/12/25 09:44:41;;;;;;;6.57;4.40;;;7.30;99.90;;;;;;4141823;28;20564;-58
2020/12/25 09:46:42;;;;;;;6.20;4.47;;;7.20;99.90;;;;;;4142721;28;20481;-59
2020/12/25 09:48:43;;;;;;;6.93;4.50;;;7.30;99.90;;;;;;4139863;28;20053;-54
2020/12/25 09:50:44;;;;;;;7.47;4.87;;;7.30;99.90;;;;;;4141796;28;20379;-56
2020/12/25 09:52:46;;;;;;;6.83;5.10;;;7.30;99.90;;;;;;4141484;28;20072;-51
2020/12/25 09:54:47;;;;;;;8.30;6.27;;;7.30;99.90;;;;;;4140864;28;20091;-50
2020/12/25 09:56:50;;;;;;;9.83;7.10;;;7.30;99.90;;;;;;4140607;28;20064;-47
2020/12/25 09:58:52;;;;;;;10.57;7.53;;;7.30;99.90;;;;;;4142195;28;20049;-52
2020/12/25 10:00:53;;;;;;;14.20;7.77;;;7.30;99.90;;;;;;4141902;28;20104;-46
2020/12/25 10:02:54;;;;;;;10.37;7.10;;;7.40;99.90;;;;;;4140771;28;20088;-53
2020/12/25 10:04:55;;;;;;;10.03;6.23;;;7.40;99.90;;;;;;4142214;28;20093;-46
2020/12/25 10:06:57;;;;;;;10.00;7.13;;;7.50;99.90;;;;;;4140138;28;20169;-58
2020/12/25 10:08:58;;;;;;;9.47;6.17;;;7.50;99.90;;;;;;4141747;28;20116;-49
2020/12/25 10:10:59;;;;;;;9.00;6.13;;;7.50;99.90;;;;;;4140368;28;20509;-54
2020/12/25 10:13:00;;;;;;;11.83;7.00;;;7.60;99.90;;;;;;4141912;28;20084;-48
2020/12/25 10:15:03;;;;;;;12.27;7.40;;;7.60;99.90;;;;;;4140929;28;20088;-54
2020/12/25 10:17:04;;;;;;;16.17;9.83;;;7.60;99.90;;;;;;4142376;28;20551;-58
2020/12/25 10:19:05;;;;;;;15.67;10.83;;;7.60;99.90;;;;;;4140099;28;20034;-53
2020/12/25 10:21:06;;;;;;;19.73;11.17;;;7.60;99.90;;;;;;4141891;28;20030;-54
2020/12/25 10:23:08;;;;;;;19.17;10.33;;;7.60;99.90;;;;;;4140683;28;20084;-47
2020/12/25 10:25:09;;;;;;;14.97;9.20;;;7.60;99.90;;;;;;4141510;28;20029;-56
2020/12/25 10:27:10;;;;;;;10.73;7.40;;;7.60;99.90;;;;;;4141627;28;20033;-54
2020/12/25 10:29:12;;;;;;;11.30;6.17;;;7.70;99.90;;;;;;4140389;28;20085;-50
2020/12/25 10:31:13;;;;;;;11.47;6.70;;;7.70;99.90;;;;;;4141055;28;20046;-60